Nanaimo Airport, British Columbia

Past 24 Hour Conditions

Date / Time
(PDT)
Conditions Temp
(°C)
Humidity
(%)
Dew Point
(°C)
Wind
(km/h)
Pressure
(kPa)
Visibility
(km)
27 March 2015
12:00 Mostly Cloudy 13 82 10 SSE 10 101.5 32
11:00 Mostly Cloudy 11 91 10 S 7 101.6 32
10:00 Mostly Cloudy 10 93 9 calm 101.6 24
9:00 Mostly Cloudy 8 97 8 calm 101.6 19
8:00 Fog Patches 7   98 6 SSE 5 101.6 16
7:00 Mostly Cloudy 7   98 7 N 2 101.7 16
6:00 Mostly Cloudy 7   98 7 N 2 101.7 16
5:00 N/A 7   98 7 calm 101.8 N/A
4:00 N/A 7   98 7 calm 101.8 N/A
3:00 N/A 7   98 7 W 5 101.9 N/A
2:00 N/A 8 98 8 W 4 102.0 N/A
1:00 N/A 8 98 8 W 3 102.0 N/A
00:00 N/A 9 98 8 S 7 102.1 N/A
26 March 2015
23:00 N/A 9 98 9 NW 2 102.1 N/A
22:00 N/A 11 97 10 SW 4 102.1 N/A
21:00 Partly Cloudy 11 96 10 ENE 4 102.1 32
20:00 Mostly Cloudy 13 88 11 ENE 4 102.1 32
19:00 Mostly Cloudy 15 79 11 ESE 8 102.1 32
18:00 Mostly Cloudy 17   74 12 ENE 8 102.2 32
17:00 Mostly Cloudy 17   72 12 ENE 14 102.2 32
16:00 Mostly Cloudy 17   71 12 ESE 11 102.2 32
15:00 Mostly Cloudy 17   75 13 SE 9 102.3 32
14:00 Mostly Cloudy 15 83 12 SE 8 102.4 24
13:00 Mostly Cloudy 14 86 12 E 12 102.4 24
12:00 Mostly Cloudy 14 88 12 ENE 10 102.4 24
N/A Not available
↑ Highest temperature
↓ Lowest temperature

If you require additional historical weather information, please visit Climate Data Online.

What we are doing

Date modified: